Julio de Castilhos, Brazil
Current Conditions -  °F | °C
As of 6:00 AM on Friday 31 Oct 2014 (Local Time) from SBSM Reporting Station
Few Clouds Few Clouds  
Wind Chill: 63°   Ceiling: Unl
Heat Index: 63°   Visibility: 6mi
Dew Point: 61°   Wind: 3mph
Humidity: 94%   Direction: 90°E
Pressure: 29.88"   Gusts: NA
Location:  29.23°S, 53.68°W
Report Text: SBSM 310800Z 09003KT 9999 FEW005 17/16 Q1012
Loading
Personal Weather Stations






























Interactive Weather Map
Tropical Storm Tracking
New forecast layout! Learn more

10-Day Weather Forecast

Advertisements
Track Severe Weather on mobile